Irvington, Iowa
Current Conditions -  °F | °C
As of 11:15 AM on Saturday 20 Dec 2014 (Local Time) from KAXA Reporting Station
Overcast Overcast  
Wind Chill: -6°   Ceiling: 1400
Heat Index: -1°   Visibility: 10mi
Dew Point: -1°   Wind: 10mph
Humidity: 100%   Direction: 180°S
Pressure: 30.14"   Gusts: NA
Location:  42.991°N, 94.0912°W
Report Text: KAXA 201715Z AUTO 18009KT 10SM OVC014 M01/M01 A3014 RMK AO2
Loading
Personal Weather Stations






























Interactive Weather Map New forecast layout! Learn more

10-Day Weather Forecast

Advertisements
Track Severe Weather on mobile